sensor_id;sensor_type;location;lat;lon;timestamp;temperature;humidity
49777;DHT22;35673;51.482;7.436;2022-10-17T00:00:21;15.00;99.90
49777;DHT22;35673;51.482;7.436;2022-10-17T00:02:47;14.90;99.90
49777;DHT22;35673;51.482;7.436;2022-10-17T00:05:12;14.90;99.90
49777;DHT22;35673;51.482;7.436;2022-10-17T00:07:38;14.90;99.90
49777;DHT22;35673;51.482;7.436;2022-10-17T00:10:07;14.80;99.90
49777;DHT22;35673;51.482;7.436;2022-10-17T00:12:33;14.90;99.90
49777;DHT22;35673;51.482;7.436;2022-10-17T00:14:59;14.90;99.90
49777;DHT22;35673;51.482;7.436;2022-10-17T00:17:24;14.90;99.90
49777;DHT22;35673;51.482;7.436;2022-10-17T00:19:50;14.80;99.90
49777;DHT22;35673;51.482;7.436;2022-10-17T00:22:16;14.80;99.90
49777;DHT22;35673;51.482;7.436;2022-10-17T00:24:41;14.80;99.90
49777;DHT22;35673;51.482;7.436;2022-10-17T00:27:07;14.70;99.90
49777;DHT22;35673;51.482;7.436;2022-10-17T00:29:33;14.70;99.90
49777;DHT22;35673;51.482;7.436;2022-10-17T00:31:58;14.70;99.90
49777;DHT22;35673;51.482;7.436;2022-10-17T00:34:24;14.70;99.90
49777;DHT22;35673;51.482;7.436;2022-10-17T00:36:50;14.70;99.90
49777;DHT22;35673;51.482;7.436;2022-10-17T00:39:15;14.70;99.90
49777;DHT22;35673;51.482;7.436;2022-10-17T00:41:41;14.80;99.90
49777;DHT22;35673;51.482;7.436;2022-10-17T00:46:56;15.10;99.90
49777;DHT22;35673;51.482;7.436;2022-10-17T00:49:24;15.10;99.90
49777;DHT22;35673;51.482;7.436;2022-10-17T00:52:00;15.30;99.90
49777;DHT22;35673;51.482;7.436;2022-10-17T00:54:31;15.40;99.90
49777;DHT22;35673;51.482;7.436;2022-10-17T00:56:58;15.50;99.90
49777;DHT22;35673;51.482;7.436;2022-10-17T00:59:25;15.60;99.90
49777;DHT22;35673;51.482;7.436;2022-10-17T01:01:58;15.70;99.90
49777;DHT22;35673;51.482;7.436;2022-10-17T01:04:24;15.70;99.90
49777;DHT22;35673;51.482;7.436;2022-10-17T01:06:50;15.70;99.90
49777;DHT22;35673;51.482;7.436;2022-10-17T01:09:15;15.80;99.90
49777;DHT22;35673;51.482;7.436;2022-10-17T01:11:55;15.80;99.90
49777;DHT22;35673;51.482;7.436;2022-10-17T01:14:30;15.80;99.90
49777;DHT22;35673;51.482;7.436;2022-10-17T01:20:15;15.90;99.90
49777;DHT22;35673;51.482;7.436;2022-10-17T01:23:26;15.90;99.90
49777;DHT22;35673;51.482;7.436;2022-10-17T01:25:55;16.00;99.90
49777;DHT22;35673;51.482;7.436;2022-10-17T01:31:18;16.00;99.90
49777;DHT22;35673;51.482;7.436;2022-10-17T01:36:36;16.10;99.90
49777;DHT22;35673;51.482;7.436;2022-10-17T01:44:19;16.10;99.90
49777;DHT22;35673;51.482;7.436;2022-10-17T01:46:53;16.10;99.90
49777;DHT22;35673;51.482;7.436;2022-10-17T01:49:23;16.10;99.90
49777;DHT22;35673;51.482;7.436;2022-10-17T01:51:55;16.10;99.90
49777;DHT22;35673;51.482;7.436;2022-10-17T01:54:23;16.20;99.90
49777;DHT22;35673;51.482;7.436;2022-10-17T01:56:54;16.20;99.90
49777;DHT22;35673;51.482;7.436;2022-10-17T01:59:28;16.20;99.90
49777;DHT22;35673;51.482;7.436;2022-10-17T02:01:57;16.20;99.90
49777;DHT22;35673;51.482;7.436;2022-10-17T02:04:24;16.20;99.90
49777;DHT22;35673;51.482;7.436;2022-10-17T02:06:49;16.30;99.90
49777;DHT22;35673;51.482;7.436;2022-10-17T02:09:24;16.30;99.90
49777;DHT22;35673;51.482;7.436;2022-10-17T02:12:15;16.20;99.90
49777;DHT22;35673;51.482;7.436;2022-10-17T02:22:54;16.10;99.90
49777;DHT22;35673;51.482;7.436;2022-10-17T02:25:33;16.10;99.90
49777;DHT22;35673;51.482;7.436;2022-10-17T02:30:51;16.10;99.90
49777;DHT22;35673;51.482;7.436;2022-10-17T02:33:24;16.10;99.90
49777;DHT22;35673;51.482;7.436;2022-10-17T02:35:54;16.10;99.90
49777;DHT22;35673;51.482;7.436;2022-10-17T02:38:22;16.10;99.90
49777;DHT22;35673;51.482;7.436;2022-10-17T02:40:50;16.10;99.90
49777;DHT22;35673;51.482;7.436;2022-10-17T02:43:18;16.10;99.90
49777;DHT22;35673;51.482;7.436;2022-10-17T02:45:45;16.10;99.90
49777;DHT22;35673;51.482;7.436;2022-10-17T02:48:24;16.10;99.90
49777;DHT22;35673;51.482;7.436;2022-10-17T02:51:15;16.20;99.90
49777;DHT22;35673;51.482;7.436;2022-10-17T02:56:33;16.20;99.90
49777;DHT22;35673;51.482;7.436;2022-10-17T02:59:02;16.20;99.90
49777;DHT22;35673;51.482;7.436;2022-10-17T03:01:30;16.20;99.90
49777;DHT22;35673;51.482;7.436;2022-10-17T03:04:07;16.20;99.90
49777;DHT22;35673;51.482;7.436;2022-10-17T03:06:33;16.20;99.90
49777;DHT22;35673;51.482;7.436;2022-10-17T03:08:58;16.20;99.90
49777;DHT22;35673;51.482;7.436;2022-10-17T03:11:24;16.20;99.90
49777;DHT22;35673;51.482;7.436;2022-10-17T03:13:49;16.20;99.90
49777;DHT22;35673;51.482;7.436;2022-10-17T03:16:15;16.20;99.90
49777;DHT22;35673;51.482;7.436;2022-10-17T03:18:40;16.20;99.90
49777;DHT22;35673;51.482;7.436;2022-10-17T03:21:06;16.20;99.90
49777;DHT22;35673;51.482;7.436;2022-10-17T03:23:31;16.20;99.90
49777;DHT22;35673;51.482;7.436;2022-10-17T03:25:57;16.20;99.90
49777;DHT22;35673;51.482;7.436;2022-10-17T03:28:23;16.20;99.90
49777;DHT22;35673;51.482;7.436;2022-10-17T03:30:48;16.20;99.90
49777;DHT22;35673;51.482;7.436;2022-10-17T03:33:14;16.20;99.90
49777;DHT22;35673;51.482;7.436;2022-10-17T03:35:39;16.20;99.90
49777;DHT22;35673;51.482;7.436;2022-10-17T03:38:05;16.20;99.90
49777;DHT22;35673;51.482;7.436;2022-10-17T03:40:31;16.20;99.90
49777;DHT22;35673;51.482;7.436;2022-10-17T03:42:56;16.30;99.90
49777;DHT22;35673;51.482;7.436;2022-10-17T03:45:22;16.20;99.90
49777;DHT22;35673;51.482;7.436;2022-10-17T03:47:47;16.20;99.90
49777;DHT22;35673;51.482;7.436;2022-10-17T03:50:13;16.30;99.90
49777;DHT22;35673;51.482;7.436;2022-10-17T03:52:39;16.20;99.90
49777;DHT22;35673;51.482;7.436;2022-10-17T03:55:05;16.20;99.90
49777;DHT22;35673;51.482;7.436;2022-10-17T03:57:30;16.30;99.90
49777;DHT22;35673;51.482;7.436;2022-10-17T03:59:56;16.30;99.90
49777;DHT22;35673;51.482;7.436;2022-10-17T04:02:21;16.30;99.90
49777;DHT22;35673;51.482;7.436;2022-10-17T04:04:47;16.40;99.90
49777;DHT22;35673;51.482;7.436;2022-10-17T04:07:12;16.40;99.90
49777;DHT22;35673;51.482;7.436;2022-10-17T04:09:38;16.30;99.90
49777;DHT22;35673;51.482;7.436;2022-10-17T04:12:04;16.30;99.90
49777;DHT22;35673;51.482;7.436;2022-10-17T04:14:29;16.30;99.90
49777;DHT22;35673;51.482;7.436;2022-10-17T04:16:55;16.30;99.90
49777;DHT22;35673;51.482;7.436;2022-10-17T04:19:20;16.30;99.90
49777;DHT22;35673;51.482;7.436;2022-10-17T04:21:46;16.30;99.90
49777;DHT22;35673;51.482;7.436;2022-10-17T04:24:12;16.30;99.90
49777;DHT22;35673;51.482;7.436;2022-10-17T04:26:37;16.30;99.90
49777;DHT22;35673;51.482;7.436;2022-10-17T04:29:03;16.30;99.90
49777;DHT22;35673;51.482;7.436;2022-10-17T04:31:28;16.20;99.90
49777;DHT22;35673;51.482;7.436;2022-10-17T04:33:54;16.20;99.90
49777;DHT22;35673;51.482;7.436;2022-10-17T04:36:19;16.20;99.90
49777;DHT22;35673;51.482;7.436;2022-10-17T04:38:47;16.20;99.90
49777;DHT22;35673;51.482;7.436;2022-10-17T04:41:15;16.20;99.90
49777;DHT22;35673;51.482;7.436;2022-10-17T04:43:41;16.20;99.90
49777;DHT22;35673;51.482;7.436;2022-10-17T04:46:09;16.20;99.90
49777;DHT22;35673;51.482;7.436;2022-10-17T04:48:35;16.20;99.90
49777;DHT22;35673;51.482;7.436;2022-10-17T04:51:03;16.20;99.90
49777;DHT22;35673;51.482;7.436;2022-10-17T04:53:34;16.20;99.90
49777;DHT22;35673;51.482;7.436;2022-10-17T04:56:00;16.30;99.90
49777;DHT22;35673;51.482;7.436;2022-10-17T04:58:28;16.30;99.90
49777;DHT22;35673;51.482;7.436;2022-10-17T05:00:54;16.30;99.90
49777;DHT22;35673;51.482;7.436;2022-10-17T05:03:20;16.30;99.90
49777;DHT22;35673;51.482;7.436;2022-10-17T05:05:46;16.20;99.90
49777;DHT22;35673;51.482;7.436;2022-10-17T05:08:12;16.20;99.90
49777;DHT22;35673;51.482;7.436;2022-10-17T05:10:39;16.20;99.90
49777;DHT22;35673;51.482;7.436;2022-10-17T05:13:06;16.20;99.90
49777;DHT22;35673;51.482;7.436;2022-10-17T05:15:31;16.20;99.90
49777;DHT22;35673;51.482;7.436;2022-10-17T05:17:57;16.20;99.90
49777;DHT22;35673;51.482;7.436;2022-10-17T05:20:23;16.20;99.90
49777;DHT22;35673;51.482;7.436;2022-10-17T05:22:49;16.30;99.90
49777;DHT22;35673;51.482;7.436;2022-10-17T05:25:15;16.40;99.90
49777;DHT22;35673;51.482;7.436;2022-10-17T05:27:40;16.40;99.90
49777;DHT22;35673;51.482;7.436;2022-10-17T05:30:06;16.40;99.90
49777;DHT22;35673;51.482;7.436;2022-10-17T05:32:32;16.40;99.90
49777;DHT22;35673;51.482;7.436;2022-10-17T05:34:58;16.40;99.90
49777;DHT22;35673;51.482;7.436;2022-10-17T05:37:23;16.40;99.90
49777;DHT22;35673;51.482;7.436;2022-10-17T05:39:49;16.40;99.90
49777;DHT22;35673;51.482;7.436;2022-10-17T05:42:14;16.40;99.90
49777;DHT22;35673;51.482;7.436;2022-10-17T05:44:40;16.40;99.90
49777;DHT22;35673;51.482;7.436;2022-10-17T05:47:07;16.40;99.90
49777;DHT22;35673;51.482;7.436;2022-10-17T05:49:32;16.40;99.90
49777;DHT22;35673;51.482;7.436;2022-10-17T05:51:58;16.50;99.90
49777;DHT22;35673;51.482;7.436;2022-10-17T05:54:24;16.50;99.90
49777;DHT22;35673;51.482;7.436;2022-10-17T05:56:53;16.50;99.90
49777;DHT22;35673;51.482;7.436;2022-10-17T05:59:19;16.60;99.90
49777;DHT22;35673;51.482;7.436;2022-10-17T06:01:45;16.70;99.90
49777;DHT22;35673;51.482;7.436;2022-10-17T06:04:11;16.80;99.90
49777;DHT22;35673;51.482;7.436;2022-10-17T06:06:37;16.80;99.90
49777;DHT22;35673;51.482;7.436;2022-10-17T06:09:03;16.80;99.90
49777;DHT22;35673;51.482;7.436;2022-10-17T06:11:29;16.90;99.90
49777;DHT22;35673;51.482;7.436;2022-10-17T06:13:55;17.00;99.90
49777;DHT22;35673;51.482;7.436;2022-10-17T06:16:21;17.10;99.90
49777;DHT22;35673;51.482;7.436;2022-10-17T06:18:46;17.20;99.90
49777;DHT22;35673;51.482;7.436;2022-10-17T06:21:14;17.30;99.90
49777;DHT22;35673;51.482;7.436;2022-10-17T06:23:41;17.20;99.90
49777;DHT22;35673;51.482;7.436;2022-10-17T06:26:07;17.10;99.90
49777;DHT22;35673;51.482;7.436;2022-10-17T06:28:33;17.00;99.90
49777;DHT22;35673;51.482;7.436;2022-10-17T06:31:02;17.10;99.90
49777;DHT22;35673;51.482;7.436;2022-10-17T06:33:28;17.10;99.90
49777;DHT22;35673;51.482;7.436;2022-10-17T06:35:54;17.00;99.90
49777;DHT22;35673;51.482;7.436;2022-10-17T06:38:20;17.00;99.90
49777;DHT22;35673;51.482;7.436;2022-10-17T06:40:46;17.00;99.90
49777;DHT22;35673;51.482;7.436;2022-10-17T06:43:11;17.00;99.90
49777;DHT22;35673;51.482;7.436;2022-10-17T06:45:38;17.00;99.90
49777;DHT22;35673;51.482;7.436;2022-10-17T06:48:05;17.00;99.90
49777;DHT22;35673;51.482;7.436;2022-10-17T06:50:30;17.00;99.90
49777;DHT22;35673;51.482;7.436;2022-10-17T06:52:56;17.10;99.90
49777;DHT22;35673;51.482;7.436;2022-10-17T06:55:21;17.10;99.90
49777;DHT22;35673;51.482;7.436;2022-10-17T06:57:47;17.10;99.90
49777;DHT22;35673;51.482;7.436;2022-10-17T07:00:13;17.00;99.90
49777;DHT22;35673;51.482;7.436;2022-10-17T07:02:38;17.10;99.90
49777;DHT22;35673;51.482;7.436;2022-10-17T07:05:04;17.10;99.90
49777;DHT22;35673;51.482;7.436;2022-10-17T07:07:31;17.10;99.90
49777;DHT22;35673;51.482;7.436;2022-10-17T07:09:57;17.10;99.90
49777;DHT22;35673;51.482;7.436;2022-10-17T07:12:22;17.20;99.90
49777;DHT22;35673;51.482;7.436;2022-10-17T07:14:49;17.20;99.90
49777;DHT22;35673;51.482;7.436;2022-10-17T07:17:15;17.30;99.90
49777;DHT22;35673;51.482;7.436;2022-10-17T07:19:41;17.40;99.90
49777;DHT22;35673;51.482;7.436;2022-10-17T07:22:08;17.50;99.90
49777;DHT22;35673;51.482;7.436;2022-10-17T07:24:33;17.60;99.90
49777;DHT22;35673;51.482;7.436;2022-10-17T07:26:59;17.70;99.90
49777;DHT22;35673;51.482;7.436;2022-10-17T07:29:24;17.80;99.90
49777;DHT22;35673;51.482;7.436;2022-10-17T07:31:50;17.80;99.90
49777;DHT22;35673;51.482;7.436;2022-10-17T07:34:16;17.90;99.90
49777;DHT22;35673;51.482;7.436;2022-10-17T07:36:42;17.90;99.90
49777;DHT22;35673;51.482;7.436;2022-10-17T07:39:08;18.10;99.90
49777;DHT22;35673;51.482;7.436;2022-10-17T07:41:33;18.20;99.90
49777;DHT22;35673;51.482;7.436;2022-10-17T07:43:59;18.30;99.90
49777;DHT22;35673;51.482;7.436;2022-10-17T07:46:25;18.40;99.90
49777;DHT22;35673;51.482;7.436;2022-10-17T07:48:50;18.60;99.90
49777;DHT22;35673;51.482;7.436;2022-10-17T07:51:16;18.70;99.90
49777;DHT22;35673;51.482;7.436;2022-10-17T07:53:43;18.70;99.90
49777;DHT22;35673;51.482;7.436;2022-10-17T07:56:10;18.70;99.90
49777;DHT22;35673;51.482;7.436;2022-10-17T07:58:36;18.70;99.90
49777;DHT22;35673;51.482;7.436;2022-10-17T08:01:10;18.80;99.90
49777;DHT22;35673;51.482;7.436;2022-10-17T08:03:42;18.80;99.90
49777;DHT22;35673;51.482;7.436;2022-10-17T08:06:08;18.80;99.90
49777;DHT22;35673;51.482;7.436;2022-10-17T08:08:34;18.80;99.90
49777;DHT22;35673;51.482;7.436;2022-10-17T08:11:08;18.80;99.90
49777;DHT22;35673;51.482;7.436;2022-10-17T08:13:34;18.80;99.90
49777;DHT22;35673;51.482;7.436;2022-10-17T08:16:02;18.70;99.90
49777;DHT22;35673;51.482;7.436;2022-10-17T08:18:28;18.80;99.90
49777;DHT22;35673;51.482;7.436;2022-10-17T08:20:53;18.80;99.90
49777;DHT22;35673;51.482;7.436;2022-10-17T08:23:19;18.90;99.90
49777;DHT22;35673;51.482;7.436;2022-10-17T08:25:45;19.00;99.90
49777;DHT22;35673;51.482;7.436;2022-10-17T08:28:11;19.10;99.90
49777;DHT22;35673;51.482;7.436;2022-10-17T08:30:36;19.20;99.90
49777;DHT22;35673;51.482;7.436;2022-10-17T08:33:02;19.30;99.90
49777;DHT22;35673;51.482;7.436;2022-10-17T08:35:27;19.40;99.90
49777;DHT22;35673;51.482;7.436;2022-10-17T08:37:53;19.50;99.90
49777;DHT22;35673;51.482;7.436;2022-10-17T08:40:24;19.70;99.90
49777;DHT22;35673;51.482;7.436;2022-10-17T08:48:15;20.00;99.90
49777;DHT22;35673;51.482;7.436;2022-10-17T08:50:51;20.00;99.90
49777;DHT22;35673;51.482;7.436;2022-10-17T08:53:57;20.10;99.90
49777;DHT22;35673;51.482;7.436;2022-10-17T08:56:29;20.30;99.90
49777;DHT22;35673;51.482;7.436;2022-10-17T08:58:57;20.40;99.90
49777;DHT22;35673;51.482;7.436;2022-10-17T09:12:17;20.70;99.90
49777;DHT22;35673;51.482;7.436;2022-10-17T09:20:14;20.80;99.90
49777;DHT22;35673;51.482;7.436;2022-10-17T09:22:57;20.80;99.90
49777;DHT22;35673;51.482;7.436;2022-10-17T09:25:25;20.90;99.90
49777;DHT22;35673;51.482;7.436;2022-10-17T09:28:17;20.90;99.90
49777;DHT22;35673;51.482;7.436;2022-10-17T09:30:55;21.00;99.80
49777;DHT22;35673;51.482;7.436;2022-10-17T09:33:32;21.00;99.40
49777;DHT22;35673;51.482;7.436;2022-10-17T09:35:58;21.20;98.10
49777;DHT22;35673;51.482;7.436;2022-10-17T09:38:33;21.30;97.40
49777;DHT22;35673;51.482;7.436;2022-10-17T09:41:01;21.30;96.40
49777;DHT22;35673;51.482;7.436;2022-10-17T09:43:27;21.30;96.20
49777;DHT22;35673;51.482;7.436;2022-10-17T09:46:06;21.50;95.50
49777;DHT22;35673;51.482;7.436;2022-10-17T09:48:55;21.60;93.10
49777;DHT22;35673;51.482;7.436;2022-10-17T09:51:22;21.60;92.50
49777;DHT22;35673;51.482;7.436;2022-10-17T09:53:56;21.60;92.90
49777;DHT22;35673;51.482;7.436;2022-10-17T09:56:23;21.70;92.60
49777;DHT22;35673;51.482;7.436;2022-10-17T09:58:51;21.80;92.70
49777;DHT22;35673;51.482;7.436;2022-10-17T10:01:27;21.80;92.30
49777;DHT22;35673;51.482;7.436;2022-10-17T10:04:11;21.90;92.80
49777;DHT22;35673;51.482;7.436;2022-10-17T10:06:37;21.90;91.80
49777;DHT22;35673;51.482;7.436;2022-10-17T10:09:04;21.90;91.90
49777;DHT22;35673;51.482;7.436;2022-10-17T10:11:58;21.80;92.20
49777;DHT22;35673;51.482;7.436;2022-10-17T10:14:30;21.80;92.00
49777;DHT22;35673;51.482;7.436;2022-10-17T10:16:58;21.70;92.80
49777;DHT22;35673;51.482;7.436;2022-10-17T10:19:35;21.70;92.70
49777;DHT22;35673;51.482;7.436;2022-10-17T10:22:12;21.60;92.30
49777;DHT22;35673;51.482;7.436;2022-10-17T10:24:39;21.50;92.70
49777;DHT22;35673;51.482;7.436;2022-10-17T10:27:04;21.40;93.00
49777;DHT22;35673;51.482;7.436;2022-10-17T10:29:36;21.40;93.40
49777;DHT22;35673;51.482;7.436;2022-10-17T10:32:32;21.30;93.60
49777;DHT22;35673;51.482;7.436;2022-10-17T10:35:21;21.30;92.80
49777;DHT22;35673;51.482;7.436;2022-10-17T10:37:52;21.20;93.80
49777;DHT22;35673;51.482;7.436;2022-10-17T10:40:26;21.20;94.20
49777;DHT22;35673;51.482;7.436;2022-10-17T10:42:56;21.20;94.20
49777;DHT22;35673;51.482;7.436;2022-10-17T10:45:48;21.20;94.90
49777;DHT22;35673;51.482;7.436;2022-10-17T10:53:24;21.10;95.90
49777;DHT22;35673;51.482;7.436;2022-10-17T10:55:57;21.10;95.60
49777;DHT22;35673;51.482;7.436;2022-10-17T10:58:30;21.10;95.70
49777;DHT22;35673;51.482;7.436;2022-10-17T11:01:02;21.10;95.30
49777;DHT22;35673;51.482;7.436;2022-10-17T11:03:36;21.10;95.30
49777;DHT22;35673;51.482;7.436;2022-10-17T11:06:10;21.20;94.70
49777;DHT22;35673;51.482;7.436;2022-10-17T11:09:00;21.20;95.10
49777;DHT22;35673;51.482;7.436;2022-10-17T11:11:32;21.30;95.30
49777;DHT22;35673;51.482;7.436;2022-10-17T11:14:17;21.30;96.00
49777;DHT22;35673;51.482;7.436;2022-10-17T11:22:48;21.30;94.50
49777;DHT22;35673;51.482;7.436;2022-10-17T11:25:32;21.20;95.00
49777;DHT22;35673;51.482;7.436;2022-10-17T11:27:59;21.20;95.30
49777;DHT22;35673;51.482;7.436;2022-10-17T11:30:36;21.10;95.80
49777;DHT22;35673;51.482;7.436;2022-10-17T11:33:04;21.20;95.50
49777;DHT22;35673;51.482;7.436;2022-10-17T11:35:38;21.20;95.80
49777;DHT22;35673;51.482;7.436;2022-10-17T11:38:27;21.10;95.50
49777;DHT22;35673;51.482;7.436;2022-10-17T11:40:57;21.10;95.90
49777;DHT22;35673;51.482;7.436;2022-10-17T11:43:34;21.10;96.30
49777;DHT22;35673;51.482;7.436;2022-10-17T11:48:50;21.10;96.00
49777;DHT22;35673;51.482;7.436;2022-10-17T11:51:18;21.20;96.00
49777;DHT22;35673;51.482;7.436;2022-10-17T11:53:45;21.30;95.00
49777;DHT22;35673;51.482;7.436;2022-10-17T11:56:14;21.40;94.90
49777;DHT22;35673;51.482;7.436;2022-10-17T11:58:56;21.40;94.40
49777;DHT22;35673;51.482;7.436;2022-10-17T12:01:33;21.50;94.60
49777;DHT22;35673;51.482;7.436;2022-10-17T12:04:23;21.50;94.00
49777;DHT22;35673;51.482;7.436;2022-10-17T12:12:07;21.70;93.40
49777;DHT22;35673;51.482;7.436;2022-10-17T12:14:45;21.80;93.20
49777;DHT22;35673;51.482;7.436;2022-10-17T12:17:30;21.80;93.00
49777;DHT22;35673;51.482;7.436;2022-10-17T12:20:23;21.90;92.00
49777;DHT22;35673;51.482;7.436;2022-10-17T12:28:27;21.80;92.90
49777;DHT22;35673;51.482;7.436;2022-10-17T12:33:57;21.60;93.10
49777;DHT22;35673;51.482;7.436;2022-10-17T12:52:24;21.70;93.20
49777;DHT22;35673;51.482;7.436;2022-10-17T12:54:55;21.70;92.00
49777;DHT22;35673;51.482;7.436;2022-10-17T12:59:47;21.60;94.00
49777;DHT22;35673;51.482;7.436;2022-10-17T13:02:19;21.60;94.20
49777;DHT22;35673;51.482;7.436;2022-10-17T13:04:47;21.50;94.20
49777;DHT22;35673;51.482;7.436;2022-10-17T13:07:20;21.50;94.20
49777;DHT22;35673;51.482;7.436;2022-10-17T13:09:46;21.40;94.50
49777;DHT22;35673;51.482;7.436;2022-10-17T13:12:19;21.30;95.00
49777;DHT22;35673;51.482;7.436;2022-10-17T13:14:47;21.30;95.40
49777;DHT22;35673;51.482;7.436;2022-10-17T13:17:25;21.30;96.60
49777;DHT22;35673;51.482;7.436;2022-10-17T13:19:52;21.30;97.00
49777;DHT22;35673;51.482;7.436;2022-10-17T13:22:19;21.30;97.10
49777;DHT22;35673;51.482;7.436;2022-10-17T13:24:46;21.20;97.50
49777;DHT22;35673;51.482;7.436;2022-10-17T13:27:28;21.20;98.10
49777;DHT22;35673;51.482;7.436;2022-10-17T13:29:55;21.10;98.60
49777;DHT22;35673;51.482;7.436;2022-10-17T13:32:23;21.10;99.30
49777;DHT22;35673;51.482;7.436;2022-10-17T13:35:06;21.00;99.80
49777;DHT22;35673;51.482;7.436;2022-10-17T13:37:34;21.10;99.90
49777;DHT22;35673;51.482;7.436;2022-10-17T13:39:59;21.10;99.90
49777;DHT22;35673;51.482;7.436;2022-10-17T13:42:35;21.20;99.90
49777;DHT22;35673;51.482;7.436;2022-10-17T13:45:01;21.30;99.90
49777;DHT22;35673;51.482;7.436;2022-10-17T13:47:29;21.30;99.90
49777;DHT22;35673;51.482;7.436;2022-10-17T13:49:57;21.20;99.90
49777;DHT22;35673;51.482;7.436;2022-10-17T13:52:26;21.20;99.90
49777;DHT22;35673;51.482;7.436;2022-10-17T13:54:53;21.10;99.90
49777;DHT22;35673;51.482;7.436;2022-10-17T13:57:27;21.00;99.90
49777;DHT22;35673;51.482;7.436;2022-10-17T14:00:03;21.00;99.90
49777;DHT22;35673;51.482;7.436;2022-10-17T14:02:31;20.90;99.90
49777;DHT22;35673;51.482;7.436;2022-10-17T14:05:11;20.90;99.90
49777;DHT22;35673;51.482;7.436;2022-10-17T14:10:20;20.80;99.90
49777;DHT22;35673;51.482;7.436;2022-10-17T14:12:46;20.80;99.90
49777;DHT22;35673;51.482;7.436;2022-10-17T14:15:14;20.70;99.90
49777;DHT22;35673;51.482;7.436;2022-10-17T14:17:40;20.70;99.90
49777;DHT22;35673;51.482;7.436;2022-10-17T14:20:07;20.70;99.90
49777;DHT22;35673;51.482;7.436;2022-10-17T14:22:35;20.70;99.90
49777;DHT22;35673;51.482;7.436;2022-10-17T14:25:02;20.70;99.90
49777;DHT22;35673;51.482;7.436;2022-10-17T14:27:29;20.70;99.90
49777;DHT22;35673;51.482;7.436;2022-10-17T14:29:57;20.60;99.90
49777;DHT22;35673;51.482;7.436;2022-10-17T14:32:27;20.60;99.90
49777;DHT22;35673;51.482;7.436;2022-10-17T14:34:55;20.60;99.90
49777;DHT22;35673;51.482;7.436;2022-10-17T14:37:29;20.50;99.90
49777;DHT22;35673;51.482;7.436;2022-10-17T14:39:59;20.50;99.90
49777;DHT22;35673;51.482;7.436;2022-10-17T14:42:25;20.50;99.90
49777;DHT22;35673;51.482;7.436;2022-10-17T14:44:52;20.60;99.90
49777;DHT22;35673;51.482;7.436;2022-10-17T14:47:24;20.50;99.90
49777;DHT22;35673;51.482;7.436;2022-10-17T14:50:06;20.50;99.90
49777;DHT22;35673;51.482;7.436;2022-10-17T14:52:33;20.50;99.90
49777;DHT22;35673;51.482;7.436;2022-10-17T14:55:11;20.40;99.90
49777;DHT22;35673;51.482;7.436;2022-10-17T14:57:44;20.40;99.90
49777;DHT22;35673;51.482;7.436;2022-10-17T15:00:14;20.40;99.90
49777;DHT22;35673;51.482;7.436;2022-10-17T15:02:41;20.30;99.90
49777;DHT22;35673;51.482;7.436;2022-10-17T15:05:07;20.30;99.90
49777;DHT22;35673;51.482;7.436;2022-10-17T15:07:32;20.30;99.90
49777;DHT22;35673;51.482;7.436;2022-10-17T15:09:58;20.30;99.90
49777;DHT22;35673;51.482;7.436;2022-10-17T15:12:24;20.20;99.90
49777;DHT22;35673;51.482;7.436;2022-10-17T15:14:50;20.20;99.90
49777;DHT22;35673;51.482;7.436;2022-10-17T15:17:23;20.20;99.90
49777;DHT22;35673;51.482;7.436;2022-10-17T15:19:49;20.20;99.90
49777;DHT22;35673;51.482;7.436;2022-10-17T15:22:15;20.20;99.90
49777;DHT22;35673;51.482;7.436;2022-10-17T15:24:41;20.20;99.90
49777;DHT22;35673;51.482;7.436;2022-10-17T15:27:17;20.20;99.90
49777;DHT22;35673;51.482;7.436;2022-10-17T15:29:44;20.20;99.90
49777;DHT22;35673;51.482;7.436;2022-10-17T15:32:10;20.10;99.90
49777;DHT22;35673;51.482;7.436;2022-10-17T15:34:35;20.10;99.90
49777;DHT22;35673;51.482;7.436;2022-10-17T15:37:03;20.10;99.90
49777;DHT22;35673;51.482;7.436;2022-10-17T15:39:29;20.10;99.90
49777;DHT22;35673;51.482;7.436;2022-10-17T15:41:54;20.10;99.90
49777;DHT22;35673;51.482;7.436;2022-10-17T15:44:20;20.10;99.90
49777;DHT22;35673;51.482;7.436;2022-10-17T15:46:46;20.00;99.90
49777;DHT22;35673;51.482;7.436;2022-10-17T15:49:17;20.00;99.90
49777;DHT22;35673;51.482;7.436;2022-10-17T15:51:44;20.00;99.90
49777;DHT22;35673;51.482;7.436;2022-10-17T15:54:09;19.90;99.90
49777;DHT22;35673;51.482;7.436;2022-10-17T15:56:37;19.90;99.90
49777;DHT22;35673;51.482;7.436;2022-10-17T15:59:08;19.80;99.90
49777;DHT22;35673;51.482;7.436;2022-10-17T16:01:35;19.80;99.90
49777;DHT22;35673;51.482;7.436;2022-10-17T16:04:01;19.70;99.90
49777;DHT22;35673;51.482;7.436;2022-10-17T16:06:27;19.70;99.90
49777;DHT22;35673;51.482;7.436;2022-10-17T16:08:53;19.70;99.90
49777;DHT22;35673;51.482;7.436;2022-10-17T16:11:30;19.60;99.90
49777;DHT22;35673;51.482;7.436;2022-10-17T16:14:00;19.60;99.90
49777;DHT22;35673;51.482;7.436;2022-10-17T16:16:26;19.50;99.90
49777;DHT22;35673;51.482;7.436;2022-10-17T16:18:52;19.50;99.90
49777;DHT22;35673;51.482;7.436;2022-10-17T16:21:19;19.50;99.90
49777;DHT22;35673;51.482;7.436;2022-10-17T16:23:45;19.50;99.90
49777;DHT22;35673;51.482;7.436;2022-10-17T16:26:11;19.40;99.90
49777;DHT22;35673;51.482;7.436;2022-10-17T16:28:41;19.30;99.90
49777;DHT22;35673;51.482;7.436;2022-10-17T16:31:18;19.30;99.90
49777;DHT22;35673;51.482;7.436;2022-10-17T16:33:44;19.20;99.90
49777;DHT22;35673;51.482;7.436;2022-10-17T16:36:10;19.20;99.90
49777;DHT22;35673;51.482;7.436;2022-10-17T16:38:35;19.10;99.90
49777;DHT22;35673;51.482;7.436;2022-10-17T16:41:01;19.00;99.90
49777;DHT22;35673;51.482;7.436;2022-10-17T16:43:26;19.00;99.90
49777;DHT22;35673;51.482;7.436;2022-10-17T16:45:54;18.80;99.90
49777;DHT22;35673;51.482;7.436;2022-10-17T16:48:19;18.80;99.90
49777;DHT22;35673;51.482;7.436;2022-10-17T16:50:45;18.70;99.90
49777;DHT22;35673;51.482;7.436;2022-10-17T16:53:10;18.70;99.90
49777;DHT22;35673;51.482;7.436;2022-10-17T16:55:37;18.60;99.90
49777;DHT22;35673;51.482;7.436;2022-10-17T16:58:02;18.60;99.90
49777;DHT22;35673;51.482;7.436;2022-10-17T17:00:28;18.50;99.90
49777;DHT22;35673;51.482;7.436;2022-10-17T17:02:53;18.40;99.90
49777;DHT22;35673;51.482;7.436;2022-10-17T17:05:19;18.30;99.90
49777;DHT22;35673;51.482;7.436;2022-10-17T17:07:44;18.30;99.90
49777;DHT22;35673;51.482;7.436;2022-10-17T17:10:12;18.20;99.90
49777;DHT22;35673;51.482;7.436;2022-10-17T17:12:37;18.20;99.90
49777;DHT22;35673;51.482;7.436;2022-10-17T17:15:03;18.10;99.90
49777;DHT22;35673;51.482;7.436;2022-10-17T17:17:29;18.10;99.90
49777;DHT22;35673;51.482;7.436;2022-10-17T17:19:55;18.10;99.90
49777;DHT22;35673;51.482;7.436;2022-10-17T17:22:21;18.10;99.90